Time;durP1;ratioP1;P1;durP2;ratioP2;P2;SDS_P1;SDS_P2;PMS_P1;PMS_P2;Temp;Humidity;BMP_temperature;BMP_pressure;BME280_temperature;BME280_humidity;BME280_pressure;Samples;Min_cycle;Max_cycle;Signal;HPM_P1;HPM_P2
2024/02/15 00:00:59;;;;;;;24.40;18.10;;;;;;;-146.25;100.00;52680.47;2072046;28;20046;-63
2024/02/15 00:02:04;;;;;;;25.20;18.35;;;;;;;-146.25;100.00;52652.06;2071630;28;36514;-63
2024/02/15 00:03:06;;;;;;;29.25;18.25;;;;;;;-146.25;100.00;52631.78;2071553;28;34843;-63
2024/02/15 00:04:09;;;;;;;27.45;18.65;;;;;;;-146.25;100.00;52639.91;2072125;28;20038;-62
2024/02/15 00:05:12;;;;;;;29.02;19.33;;;;;;;-146.25;100.00;52599.34;2071093;28;38851;-64
2024/02/15 00:06:14;;;;;;;28.35;19.45;;;;;;;-146.25;100.00;52643.97;2074189;28;33774;-63
2024/02/15 00:07:15;;;;;;;28.50;19.67;;;;;;;-146.25;100.00;52650.03;2079785;28;35557;-64
2024/02/15 00:08:19;;;;;;;27.08;19.80;;;;;;;-146.25;100.00;52635.84;2079738;28;36545;-64
2024/02/15 00:09:22;;;;;;;25.45;19.02;;;;;;;-146.25;100.00;52621.66;2079740;28;34933;-63
2024/02/15 00:10:24;;;;;;;26.90;18.73;;;;;;;-146.25;100.00;52623.69;2081024;28;20042;-62
2024/02/15 00:11:26;;;;;;;27.63;19.38;;;;;;;-146.25;100.00;52654.09;2079606;28;37553;-63
2024/02/15 00:12:28;;;;;;;29.48;19.50;;;;;;;-146.25;100.00;52656.13;2079898;28;29848;-64
2024/02/15 00:13:33;;;;;;;29.55;20.33;;;;;;;-146.25;100.00;52599.34;2080516;28;20054;-63
2024/02/15 00:14:38;;;;;;;31.67;21.25;;;;;;;-146.25;100.00;52627.75;2080063;28;25701;-63
2024/02/15 00:15:40;;;;;;;30.60;19.98;;;;;;;-146.25;100.00;52621.66;2080029;28;28118;-63
2024/02/15 00:16:41;;;;;;;28.73;20.67;;;;;;;-146.25;100.00;52645.97;2080492;28;20042;-64
2024/02/15 00:17:43;;;;;;;30.38;21.23;;;;;;;-146.25;100.00;52643.97;2079817;28;26798;-64
2024/02/15 00:18:45;;;;;;;28.90;21.15;;;;;;;-146.25;100.00;52648.00;2080026;28;37561;-63
2024/02/15 00:19:47;;;;;;;28.85;21.33;;;;;;;-146.25;100.00;52635.84;2079645;28;35599;-62
2024/02/15 00:20:49;;;;;;;29.58;21.25;;;;;;;-146.25;100.00;52599.34;2079408;28;37132;-62
2024/02/15 00:21:51;;;;;;;32.20;22.65;;;;;;;-146.25;100.00;52631.78;2079869;28;33332;-62
2024/02/15 00:22:55;;;;;;;31.65;20.55;;;;;;;-146.25;100.00;52629.75;2079527;28;33064;-62
2024/02/15 00:23:59;;;;;;;29.70;21.75;;;;;;;-146.25;100.00;52603.41;2079377;28;38111;-63
2024/02/15 00:25:01;;;;;;;28.55;21.40;;;;;;;-146.25;100.00;52583.13;2080428;28;20042;-63
2024/02/15 00:26:03;;;;;;;33.33;22.05;;;;;;;-146.25;100.00;52650.03;2079661;28;34277;-62
2024/02/15 00:27:05;;;;;;;31.55;21.83;;;;;;;-146.25;100.00;52660.19;2079776;28;33351;-61
2024/02/15 00:28:07;;;;;;;29.30;21.00;;;;;;;-146.25;100.00;52631.78;2080079;28;31520;-62
2024/02/15 00:29:10;;;;;;;32.20;21.70;;;;;;;-146.25;100.00;52635.84;2079524;28;37385;-62
2024/02/15 00:30:12;;;;;;;30.13;21.48;;;;;;;-146.25;100.00;52603.41;2080274;28;20157;-62
2024/02/15 00:31:14;;;;;;;30.95;22.13;;;;;;;-146.25;100.00;52603.41;2079390;28;37207;-63
2024/02/15 00:32:16;;;;;;;29.13;21.23;;;;;;;-146.25;100.00;52601.38;2079973;28;29540;-63
2024/02/15 00:33:18;;;;;;;29.48;21.52;;;;;;;-146.25;100.00;52615.56;2080321;28;21021;-63
2024/02/15 00:34:20;;;;;;;33.00;22.27;;;;;;;-146.25;100.00;52639.91;2079308;28;35821;-63
2024/02/15 00:35:22;;;;;;;32.53;21.85;;;;;;;-146.25;100.00;52629.75;2079623;28;36537;-63
2024/02/15 00:36:24;;;;;;;31.52;21.92;;;;;;;-146.25;100.00;52631.78;2079310;28;30916;-63
2024/02/15 00:37:26;;;;;;;28.45;20.90;;;;;;;-146.25;100.00;52631.78;2079787;28;36049;-63
2024/02/15 00:38:27;;;;;;;31.38;21.63;;;;;;;-146.25;100.00;52607.47;2079866;28;20955;-63
2024/02/15 00:39:29;;;;;;;32.92;21.80;;;;;;;-146.25;100.00;52656.13;2079246;28;38670;-63
2024/02/15 00:40:31;;;;;;;32.28;21.73;;;;;;;-146.25;100.00;52660.19;2079655;28;33863;-63
2024/02/15 00:41:33;;;;;;;32.03;21.67;;;;;;;-146.25;100.00;52633.81;2079671;28;32479;-63
2024/02/15 00:42:37;;;;;;;33.60;20.65;;;;;;;-146.25;100.00;52650.03;2080136;28;34849;-63
2024/02/15 00:43:39;;;;;;;33.28;20.77;;;;;;;-146.25;100.00;52619.63;2079986;28;20105;-62
2024/02/15 00:44:41;;;;;;;32.97;21.02;;;;;;;-146.25;100.00;52660.19;2080260;28;20871;-62
2024/02/15 00:45:43;;;;;;;32.25;21.88;;;;;;;-146.25;100.00;52658.16;2079483;28;34182;-63
2024/02/15 00:46:47;;;;;;;30.48;20.85;;;;;;;-146.25;100.00;52613.53;2079255;28;37317;-63
2024/02/15 00:47:49;;;;;;;31.85;21.15;;;;;;;-146.25;100.00;52674.38;2079431;28;30846;-63
2024/02/15 00:48:51;;;;;;;31.00;21.17;;;;;;;-146.25;100.00;52619.63;2079374;28;35531;-62
2024/02/15 00:49:55;;;;;;;31.55;20.92;;;;;;;-146.25;100.00;52623.69;2070176;28;34773;-63
2024/02/15 00:50:57;;;;;;;29.75;21.25;;;;;;;-146.25;100.00;52648.00;2070951;28;32380;-63
2024/02/15 00:51:59;;;;;;;29.52;20.83;;;;;;;-146.25;100.00;52652.06;2079292;28;34538;-62
2024/02/15 00:53:01;;;;;;;30.55;20.45;;;;;;;-146.25;100.00;52645.97;2079760;28;31773;-63
2024/02/15 00:54:03;;;;;;;30.88;20.48;;;;;;;-146.25;100.00;52623.69;2079130;28;36477;-63
2024/02/15 00:55:05;;;;;;;30.02;19.95;;;;;;;-146.25;100.00;52627.75;2070641;28;20050;-63
2024/02/15 00:56:07;;;;;;;31.38;20.52;;;;;;;-146.25;100.00;52648.00;2071107;28;34576;-63
2024/02/15 00:57:09;;;;;;;32.33;19.98;;;;;;;-146.25;100.00;52676.41;2079225;28;30213;-63
2024/02/15 00:58:11;;;;;;;31.15;20.48;;;;;;;-146.25;100.00;52613.53;2079802;28;34542;-62
2024/02/15 00:59:13;;;;;;;28.73;19.70;;;;;;;-146.25;100.00;52635.84;2079262;28;36243;-63
2024/02/15 01:00:15;;;;;;;29.65;19.85;;;;;;;-146.25;100.00;52670.31;2079512;28;28839;-63
2024/02/15 01:01:17;;;;;;;31.38;20.50;;;;;;;-146.25;100.00;52637.88;2079565;28;32473;-63
2024/02/15 01:02:19;;;;;;;28.25;19.27;;;;;;;-146.25;100.00;52631.78;2079060;28;37467;-63
2024/02/15 01:03:21;;;;;;;29.77;19.85;;;;;;;-146.25;100.00;52645.97;2079637;28;34707;-63
2024/02/15 01:04:27;;;;;;;28.83;19.60;;;;;;;-146.25;100.00;52652.06;2077211;28;34843;-63
2024/02/15 01:05:30;;;;;;;29.27;19.23;;;;;;;-146.25;100.00;52581.09;2079089;28;36809;-62
2024/02/15 01:06:32;;;;;;;28.35;19.20;;;;;;;-146.25;100.00;52621.66;2079672;28;20081;-63
2024/02/15 01:07:34;;;;;;;32.05;20.55;;;;;;;-146.25;100.00;52637.88;2078699;28;35970;-62
2024/02/15 01:08:36;;;;;;;28.95;19.58;;;;;;;-146.25;100.00;52676.41;2079550;28;33715;-63
2024/02/15 01:09:38;;;;;;;31.65;19.75;;;;;;;-146.25;100.00;52656.13;2079085;28;32735;-63
2024/02/15 01:10:40;;;;;;;30.02;20.42;;;;;;;-146.25;100.00;52656.13;2079628;28;37979;-63
2024/02/15 01:11:44;;;;;;;31.48;19.38;;;;;;;-146.25;100.00;52627.75;2079619;28;29976;-63
2024/02/15 01:12:45;;;;;;;28.67;19.38;;;;;;;-146.25;100.00;52607.47;2079662;28;28896;-62
2024/02/15 01:13:47;;;;;;;26.67;18.02;;;;;;;-146.25;100.00;52637.88;2079248;28;37864;-62
2024/02/15 01:14:49;;;;;;;29.33;19.52;;;;;;;-146.25;100.00;52619.63;2079759;28;20924;-63
2024/02/15 01:15:51;;;;;;;28.38;18.23;;;;;;;-146.25;100.00;52666.25;2079417;28;35151;-63
2024/02/15 01:16:54;;;;;;;30.17;18.65;;;;;;;-146.25;100.00;52654.09;2079380;28;34149;-63
2024/02/15 01:17:55;;;;;;;28.38;19.27;;;;;;;-146.25;100.00;52660.19;2079826;28;29034;-62
2024/02/15 01:18:57;;;;;;;29.92;19.00;;;;;;;-146.25;100.00;52627.75;2079278;28;35903;-62
2024/02/15 01:19:59;;;;;;;28.30;18.55;;;;;;;-146.25;100.00;52625.72;2078618;28;32925;-62
2024/02/15 01:21:01;;;;;;;30.08;19.63;;;;;;;-146.25;100.00;52623.69;2079526;28;35627;-62
2024/02/15 01:22:03;;;;;;;31.83;20.42;;;;;;;-146.25;100.00;52635.84;2079491;28;32376;-63
2024/02/15 01:23:07;;;;;;;31.00;20.80;;;;;;;-146.25;100.00;52641.94;2079308;28;29973;-63
2024/02/15 01:24:09;;;;;;;28.70;18.52;;;;;;;-146.25;100.00;52672.34;2079012;28;34520;-63
2024/02/15 01:25:11;;;;;;;33.58;20.27;;;;;;;-146.25;100.00;52635.84;2079293;28;37329;-62
2024/02/15 01:26:14;;;;;;;30.88;20.17;;;;;;;-146.25;100.00;52637.88;2079648;28;35505;-63
2024/02/15 01:27:16;;;;;;;31.92;20.00;;;;;;;-146.25;100.00;52621.66;2079442;28;35410;-63
2024/02/15 01:28:19;;;;;;;33.55;20.98;;;;;;;-146.25;100.00;52676.41;2079268;28;36584;-62
2024/02/15 01:29:21;;;;;;;31.08;19.83;;;;;;;-146.25;100.00;52639.91;2079602;28;34630;-62
2024/02/15 01:30:22;;;;;;;31.00;20.60;;;;;;;-146.25;100.00;52656.13;2080047;28;34610;-62
2024/02/15 01:31:24;;;;;;;34.28;20.15;;;;;;;-146.25;100.00;52645.97;2079158;28;35562;-62
2024/02/15 01:32:29;;;;;;;31.55;20.52;;;;;;;-146.25;100.00;52654.09;2079829;28;20045;-63
2024/02/15 01:33:31;;;;;;;30.17;20.58;;;;;;;-146.25;100.00;52627.75;2079483;28;32230;-63
2024/02/15 01:34:33;;;;;;;35.35;21.08;;;;;;;-146.25;100.00;52641.94;2078800;28;36447;-63
2024/02/15 01:35:35;;;;;;;33.65;21.85;;;;;;;-146.25;100.00;52676.41;2079250;28;34156;-62
2024/02/15 01:36:37;;;;;;;32.20;20.80;;;;;;;-146.25;100.00;52645.97;2079315;28;35930;-64
2024/02/15 01:37:39;;;;;;;34.92;21.42;;;;;;;-146.25;100.00;52623.69;2079398;28;33172;-63
2024/02/15 01:38:41;;;;;;;33.10;20.45;;;;;;;-146.25;100.00;52629.75;2079583;28;32608;-63
2024/02/15 01:39:43;;;;;;;34.15;21.45;;;;;;;-146.25;100.00;52688.56;2079013;28;37780;-63
2024/02/15 01:40:48;;;;;;;34.33;20.42;;;;;;;-146.25;100.00;52609.50;2079025;28;34282;-64
2024/02/15 01:41:55;;;;;;;31.50;20.92;;;;;;;-146.25;100.00;52631.78;2070361;28;33130;-64
2024/02/15 01:42:58;;;;;;;35.35;22.38;;;;;;;-146.25;100.00;52658.16;2071907;28;35269;-63
2024/02/15 01:44:01;;;;;;;35.35;21.90;;;;;;;-146.25;100.00;52648.00;2078885;28;36229;-63
2024/02/15 01:45:04;;;;;;;38.80;22.25;;;;;;;-146.25;100.00;52621.66;2079242;28;33792;-63
2024/02/15 01:46:10;;;;;;;40.45;22.25;;;;;;;-146.25;100.00;52654.09;2079377;28;36484;-63
2024/02/15 01:47:12;;;;;;;34.63;22.42;;;;;;;-146.25;100.00;52631.78;2079423;28;34572;-63
2024/02/15 01:48:15;;;;;;;34.83;22.88;;;;;;;-146.25;100.00;52599.34;2078693;28;36438;-63
2024/02/15 01:49:17;;;;;;;32.10;21.92;;;;;;;-146.25;100.00;52650.03;2079736;28;34902;-63
2024/02/15 01:50:22;;;;;;;35.72;22.58;;;;;;;-146.25;100.00;52664.22;2078552;28;35975;-63
2024/02/15 01:51:26;;;;;;;34.97;21.55;;;;;;;-146.25;100.00;52674.38;2079087;28;35568;-63
2024/02/15 01:52:28;;;;;;;33.95;21.77;;;;;;;-146.25;100.00;52627.75;2070276;28;30880;-63
2024/02/15 01:53:30;;;;;;;36.88;23.00;;;;;;;-146.25;100.00;52645.97;2070642;28;34855;-63
2024/02/15 01:54:32;;;;;;;34.00;21.92;;;;;;;-146.25;100.00;52617.59;2079238;28;37313;-63
2024/02/15 01:55:38;;;;;;;36.72;22.90;;;;;;;-146.25;100.00;52635.84;2070045;28;38445;-63
2024/02/15 01:56:39;;;;;;;35.53;22.67;;;;;;;-146.25;100.00;52639.91;2070764;28;35537;-63
2024/02/15 01:57:45;;;;;;;35.78;21.85;;;;;;;-146.25;100.00;52680.47;2071053;28;20035;-63
2024/02/15 01:58:47;;;;;;;36.90;22.05;;;;;;;-146.25;100.00;52637.88;2070985;28;33274;-63
2024/02/15 01:59:53;;;;;;;35.70;21.27;;;;;;;-146.25;100.00;52637.88;2079072;28;29013;-63
2024/02/15 02:00:57;;;;;;;36.65;21.38;;;;;;;-146.25;100.00;52611.50;2079065;28;20030;-63
2024/02/15 02:01:59;;;;;;;34.17;21.55;;;;;;;-146.25;100.00;52656.13;2069876;28;36378;-63
2024/02/15 02:03:02;;;;;;;34.15;21.63;;;;;;;-146.25;100.00;52643.97;2070538;28;31074;-63
2024/02/15 02:04:05;;;;;;;32.78;21.00;;;;;;;-146.25;100.00;52639.91;2070524;28;36219;-63
2024/02/15 02:05:08;;;;;;;37.60;21.73;;;;;;;-146.25;100.00;52619.63;2078934;28;35353;-64
2024/02/15 02:06:10;;;;;;;35.80;21.40;;;;;;;-146.25;100.00;52670.31;2071098;28;28754;-63
2024/02/15 02:07:13;;;;;;;41.17;22.23;;;;;;;-146.25;100.00;52627.75;2072230;28;37668;-63
2024/02/15 02:08:15;;;;;;;34.40;21.33;;;;;;;-146.25;100.00;52639.91;2080261;28;32450;-63
2024/02/15 02:09:18;;;;;;;35.75;21.48;;;;;;;-146.25;100.00;52672.34;2080587;28;34823;-63
2024/02/15 02:10:22;;;;;;;35.45;21.33;;;;;;;-146.25;100.00;52637.88;2080190;28;36681;-63
2024/02/15 02:11:24;;;;;;;35.90;22.02;;;;;;;-146.25;100.00;52645.97;2080898;28;32503;-63
2024/02/15 02:12:29;;;;;;;37.60;22.08;;;;;;;-146.25;100.00;52629.75;2080885;28;27157;-63
2024/02/15 02:13:35;;;;;;;35.55;21.60;;;;;;;-146.25;100.00;52627.75;2081296;28;20160;-63
2024/02/15 02:14:36;;;;;;;35.45;20.45;;;;;;;-146.25;100.00;52619.63;2080562;28;35517;-63
2024/02/15 02:15:39;;;;;;;36.42;21.55;;;;;;;-146.25;100.00;52633.81;2080583;28;30038;-64
2024/02/15 02:16:41;;;;;;;39.17;22.15;;;;;;;-146.25;100.00;52633.81;2080643;28;34086;-62
2024/02/15 02:17:48;;;;;;;37.33;22.17;;;;;;;-146.25;100.00;52635.84;2080546;28;32100;-63
2024/02/15 02:18:50;;;;;;;35.03;22.17;;;;;;;-146.25;100.00;52627.75;2071984;28;35981;-63
2024/02/15 02:19:52;;;;;;;34.00;21.60;;;;;;;-146.25;100.00;52654.09;2072258;28;35752;-63
2024/02/15 02:20:56;;;;;;;36.80;22.35;;;;;;;-146.25;100.00;52660.19;2080408;28;33789;-63
2024/02/15 02:21:58;;;;;;;36.10;20.95;;;;;;;-146.25;100.00;52652.06;2080308;28;33160;-63
2024/02/15 02:23:13;;;;;;;39.25;22.98;;;;;;;-146.25;100.00;52643.97;2080266;28;32924;-63
2024/02/15 02:24:23;;;;;;;39.97;22.77;;;;;;;-146.25;100.00;52643.97;2080450;28;36959;-63
2024/02/15 02:25:27;;;;;;;40.60;23.10;;;;;;;-146.25;100.00;52631.78;2080376;28;30680;-63
2024/02/15 02:26:30;;;;;;;36.90;21.30;;;;;;;-146.25;100.00;52660.19;2080129;28;34973;-63
2024/02/15 02:27:33;;;;;;;38.20;22.90;;;;;;;-146.25;100.00;52631.78;2071765;28;32669;-63
2024/02/15 02:28:34;;;;;;;40.28;22.75;;;;;;;-146.25;100.00;52656.13;2063515;28;34816;-63
2024/02/15 02:29:44;;;;;;;36.30;21.70;;;;;;;-146.25;100.00;52648.00;2072119;28;34196;-62
2024/02/15 02:30:47;;;;;;;37.25;22.88;;;;;;;-146.25;100.00;52631.78;2080653;28;36281;-63
2024/02/15 02:31:48;;;;;;;37.78;21.92;;;;;;;-146.25;100.00;52656.13;2080286;28;35588;-62
2024/02/15 02:32:50;;;;;;;38.95;23.17;;;;;;;-146.25;100.00;52645.97;2080730;28;20034;-62
2024/02/15 02:33:54;;;;;;;37.58;22.45;;;;;;;-146.25;100.00;52670.31;2080840;28;36333;-63
2024/02/15 02:34:57;;;;;;;35.88;22.15;;;;;;;-146.25;100.00;52652.06;2080158;28;35613;-63
2024/02/15 02:35:58;;;;;;;37.13;21.88;;;;;;;-146.25;100.00;52654.09;2080369;28;32763;-63
2024/02/15 02:37:05;;;;;;;38.20;23.02;;;;;;;-146.25;100.00;52641.94;2080323;28;37320;-63
2024/02/15 02:38:06;;;;;;;38.20;22.52;;;;;;;-146.25;100.00;52621.66;2081179;28;20042;-64
2024/02/15 02:39:08;;;;;;;35.90;21.58;;;;;;;-146.25;100.00;52645.97;2079990;28;37992;-62
2024/02/15 02:40:13;;;;;;;36.47;21.45;;;;;;;-146.25;100.00;52623.69;2080140;28;31531;-63
2024/02/15 02:41:14;;;;;;;35.55;21.67;;;;;;;-146.25;100.00;52621.66;2080608;28;20073;-63
2024/02/15 02:42:16;;;;;;;37.60;21.48;;;;;;;-146.25;100.00;52678.44;2080566;28;33122;-63
2024/02/15 02:43:18;;;;;;;33.17;20.63;;;;;;;-146.25;100.00;52650.03;2080914;28;21002;-63
2024/02/15 02:44:20;;;;;;;34.65;21.50;;;;;;;-146.25;100.00;52607.47;2080276;28;32175;-63
2024/02/15 02:45:22;;;;;;;34.83;22.00;;;;;;;-146.25;100.00;52625.72;2080402;28;35350;-63
2024/02/15 02:46:25;;;;;;;32.15;20.98;;;;;;;-146.25;100.00;52631.78;2080824;28;20139;-62
2024/02/15 02:47:27;;;;;;;33.83;21.08;;;;;;;-146.25;100.00;52631.78;2080351;28;36474;-63
2024/02/15 02:48:29;;;;;;;35.50;20.85;;;;;;;-146.25;100.00;52650.03;2079791;28;35719;-63
2024/02/15 02:49:32;;;;;;;32.85;20.75;;;;;;;-146.25;100.00;52643.97;2080148;28;34917;-62
2024/02/15 02:50:34;;;;;;;32.60;21.70;;;;;;;-146.25;100.00;52597.31;2080499;28;21016;-62
2024/02/15 02:51:36;;;;;;;31.63;20.38;;;;;;;-146.25;100.00;52645.97;2081083;28;20034;-61
2024/02/15 02:52:39;;;;;;;30.17;20.85;;;;;;;-146.25;100.00;52656.13;2080181;28;38283;-63
2024/02/15 02:53:40;;;;;;;32.72;20.20;;;;;;;-146.25;100.00;52623.69;2080428;28;32983;-62
2024/02/15 02:54:42;;;;;;;34.28;20.42;;;;;;;-146.25;100.00;52648.00;2080463;28;35317;-63
2024/02/15 02:55:44;;;;;;;30.08;19.77;;;;;;;-146.25;100.00;52666.25;2080090;28;33835;-63
2024/02/15 02:56:46;;;;;;;32.88;19.73;;;;;;;-146.25;100.00;52631.78;2081359;28;21272;-62
2024/02/15 02:57:47;;;;;;;33.50;20.15;;;;;;;-146.25;100.00;52648.00;2080353;28;30918;-62
2024/02/15 02:58:49;;;;;;;29.30;19.40;;;;;;;-146.25;100.00;52615.56;2079958;28;35756;-62
2024/02/15 02:59:51;;;;;;;31.52;20.08;;;;;;;-146.25;100.00;52639.91;2080259;28;33756;-62
2024/02/15 03:00:54;;;;;;;32.13;19.17;;;;;;;-146.25;100.00;52639.91;2080148;28;20046;-63
2024/02/15 03:01:56;;;;;;;31.38;19.73;;;;;;;-146.25;100.00;52700.72;2079954;28;36343;-63
2024/02/15 03:02:58;;;;;;;30.05;19.45;;;;;;;-146.25;100.00;52637.88;2080081;28;35611;-63
2024/02/15 03:04:01;;;;;;;28.90;19.27;;;;;;;-146.25;100.00;52605.44;2079708;28;34096;-63
2024/02/15 03:05:05;;;;;;;31.38;19.05;;;;;;;-146.25;100.00;52607.47;2079545;28;34690;-63
2024/02/15 03:06:06;;;;;;;30.83;19.48;;;;;;;-146.25;100.00;52666.25;2080482;28;20096;-62
2024/02/15 03:07:08;;;;;;;36.30;20.55;;;;;;;-146.25;100.00;52609.50;2079774;28;39099;-63
2024/02/15 03:08:14;;;;;;;29.80;19.38;;;;;;;-146.25;100.00;52654.09;2079794;28;34461;-63
2024/02/15 03:09:15;;;;;;;33.55;19.88;;;;;;;-146.25;100.00;52627.75;2071481;28;33448;-62
2024/02/15 03:10:18;;;;;;;30.27;19.50;;;;;;;-146.25;100.00;52631.78;2071653;28;33428;-63
2024/02/15 03:11:20;;;;;;;32.63;20.08;;;;;;;-146.25;100.00;52680.47;2080441;28;20178;-63
2024/02/15 03:12:22;;;;;;;29.40;19.40;;;;;;;-146.25;100.00;52637.88;2080380;28;33090;-63
2024/02/15 03:13:23;;;;;;;31.30;18.55;;;;;;;-146.25;100.00;52631.78;2080244;28;34727;-63
2024/02/15 03:14:25;;;;;;;35.30;19.50;;;;;;;-146.25;100.00;52643.97;2080176;28;27376;-63
2024/02/15 03:15:27;;;;;;;29.42;18.58;;;;;;;-146.25;100.00;52654.09;2080508;28;30487;-63
2024/02/15 03:16:29;;;;;;;26.70;18.65;;;;;;;-146.25;100.00;52611.50;2080425;28;20994;-63
2024/02/15 03:17:33;;;;;;;26.88;18.85;;;;;;;-146.25;100.00;52635.84;2079004;28;37900;-63
2024/02/15 03:18:35;;;;;;;29.05;18.70;;;;;;;-146.25;100.00;52619.63;2080123;28;35264;-62
2024/02/15 03:19:37;;;;;;;28.25;19.10;;;;;;;-146.25;100.00;52627.75;2080735;28;20045;-63
2024/02/15 03:20:39;;;;;;;27.38;18.52;;;;;;;-146.25;100.00;52637.88;2079185;28;38866;-63
2024/02/15 03:21:46;;;;;;;31.50;20.00;;;;;;;-146.25;100.00;52585.16;2079863;28;32776;-64
2024/02/15 03:22:56;;;;;;;31.58;19.20;;;;;;;-146.25;100.00;52631.78;2079904;28;33844;-63
2024/02/15 03:23:57;;;;;;;28.80;18.30;;;;;;;-146.25;100.00;52627.75;2080187;28;34466;-64
2024/02/15 03:24:59;;;;;;;26.25;18.75;;;;;;;-146.25;100.00;52643.97;2079633;28;38019;-63
2024/02/15 03:26:03;;;;;;;27.80;18.65;;;;;;;-146.25;100.00;52639.91;2080239;28;34957;-63
2024/02/15 03:27:05;;;;;;;27.65;17.15;;;;;;;-146.25;100.00;52662.22;2071013;28;34635;-64
2024/02/15 03:28:07;;;;;;;30.65;18.17;;;;;;;-146.25;100.00;52631.78;2071780;28;38664;-63
2024/02/15 03:29:09;;;;;;;26.48;18.13;;;;;;;-146.25;100.00;52688.56;2079910;28;36636;-63
2024/02/15 03:30:14;;;;;;;26.45;17.73;;;;;;;-146.25;100.00;52652.06;2080283;28;36062;-63
2024/02/15 03:31:17;;;;;;;28.55;17.60;;;;;;;-146.25;100.00;52639.91;2079665;28;35725;-63
2024/02/15 03:32:21;;;;;;;28.58;16.67;;;;;;;-146.25;100.00;52672.34;2079970;28;35552;-63
2024/02/15 03:33:26;;;;;;;25.92;17.42;;;;;;;-146.25;100.00;52629.75;2080006;28;36521;-63
2024/02/15 03:34:31;;;;;;;23.40;16.85;;;;;;;-146.25;100.00;52635.84;2080703;28;20096;-63
2024/02/15 03:35:33;;;;;;;24.45;16.33;;;;;;;-146.25;100.00;52631.78;2079562;28;33318;-63
2024/02/15 03:36:35;;;;;;;25.38;16.58;;;;;;;-146.25;100.00;52660.19;2079578;28;36211;-63
2024/02/15 03:37:39;;;;;;;27.15;17.13;;;;;;;-146.25;100.00;52674.38;2080144;28;35922;-63
2024/02/15 03:38:46;;;;;;;23.63;16.15;;;;;;;-146.25;100.00;52623.69;2080026;28;34951;-63
2024/02/15 03:39:48;;;;;;;27.88;16.25;;;;;;;-146.25;100.00;52633.81;2079964;28;36502;-63
2024/02/15 03:40:50;;;;;;;25.95;16.25;;;;;;;-146.25;100.00;52676.41;2080568;28;20947;-63
2024/02/15 03:41:53;;;;;;;25.80;15.75;;;;;;;-146.25;100.00;52643.97;2080155;28;32695;-64
2024/02/15 03:42:56;;;;;;;26.10;15.60;;;;;;;-146.25;100.00;52631.78;2079837;28;31524;-64
2024/02/15 03:43:59;;;;;;;27.67;16.65;;;;;;;-146.25;100.00;52643.97;2080003;28;35827;-64
2024/02/15 03:45:01;;;;;;;23.50;15.45;;;;;;;-146.25;100.00;52623.69;2079891;28;36947;-64
2024/02/15 03:46:03;;;;;;;24.50;15.38;;;;;;;-146.25;100.00;52633.81;2080726;28;20053;-64
2024/02/15 03:47:05;;;;;;;23.65;15.27;;;;;;;-146.25;100.00;52627.75;2080077;28;36944;-63
2024/02/15 03:48:07;;;;;;;24.15;14.85;;;;;;;-146.25;100.00;52639.91;2080092;28;29990;-63
2024/02/15 03:49:11;;;;;;;26.30;14.15;;;;;;;-146.25;100.00;52577.03;2079943;28;33219;-64
2024/02/15 03:50:14;;;;;;;24.63;14.40;;;;;;;-146.25;100.00;52662.22;2079600;28;37045;-64
2024/02/15 03:51:20;;;;;;;25.25;14.07;;;;;;;-146.25;100.00;52635.84;2080744;28;20053;-64
2024/02/15 03:52:23;;;;;;;24.48;14.07;;;;;;;-146.25;100.00;52623.69;2080536;28;20070;-64
2024/02/15 03:53:26;;;;;;;22.75;14.60;;;;;;;-146.25;100.00;52672.34;2079760;28;34180;-63
2024/02/15 03:54:29;;;;;;;26.17;15.15;;;;;;;-146.25;100.00;52611.50;2080549;28;35531;-64
2024/02/15 03:55:33;;;;;;;22.88;14.15;;;;;;;-146.25;100.00;52678.44;2079824;28;35635;-63
2024/02/15 03:56:45;;;;;;;27.42;14.95;;;;;;;-146.25;100.00;52662.22;2080364;28;20084;-64
2024/02/15 03:57:50;;;;;;;25.17;14.25;;;;;;;-146.25;100.00;52633.81;2079992;28;38302;-64
2024/02/15 03:58:51;;;;;;;26.65;14.43;;;;;;;-146.25;100.00;52652.06;2079943;28;36167;-64
2024/02/15 03:59:56;;;;;;;26.38;14.07;;;;;;;-146.25;100.00;52633.81;2079833;28;30904;-63
2024/02/15 04:01:04;;;;;;;27.08;15.07;;;;;;;-146.25;100.00;52631.78;2080176;28;21280;-64
2024/02/15 04:02:12;;;;;;;24.00;14.43;;;;;;;-146.25;100.00;52637.88;2080040;28;37047;-64
2024/02/15 04:03:14;;;;;;;27.42;15.18;;;;;;;-146.25;100.00;52660.19;2079847;28;36215;-64
2024/02/15 04:04:15;;;;;;;21.98;15.00;;;;;;;-146.25;100.00;52623.69;2079829;28;31539;-64
2024/02/15 04:05:21;;;;;;;24.77;13.82;;;;;;;-146.25;100.00;52619.63;2079628;28;37855;-65
2024/02/15 04:06:24;;;;;;;24.38;14.55;;;;;;;-146.25;100.00;52648.00;2080322;28;20045;-63
2024/02/15 04:07:26;;;;;;;26.25;15.20;;;;;;;-146.25;100.00;52637.88;2079909;28;37176;-64
2024/02/15 04:08:28;;;;;;;26.15;15.27;;;;;;;-146.25;100.00;52603.41;2079645;28;35442;-64
2024/02/15 04:09:30;;;;;;;24.13;14.18;;;;;;;-146.25;100.00;52678.44;2080137;28;20049;-63
2024/02/15 04:10:32;;;;;;;23.77;13.60;;;;;;;-146.25;100.00;52654.09;2079940;28;35816;-64
2024/02/15 04:11:35;;;;;;;22.17;14.13;;;;;;;-146.25;100.00;52645.97;2079523;28;35733;-63
2024/02/15 04:12:36;;;;;;;27.25;14.15;;;;;;;-146.25;100.00;52631.78;2079966;28;32482;-64
2024/02/15 04:13:38;;;;;;;22.83;14.10;;;;;;;-146.25;100.00;52658.16;2079756;28;36071;-63
2024/02/15 04:14:47;;;;;;;21.35;13.95;;;;;;;-146.25;100.00;52652.06;2079534;28;33804;-64
2024/02/15 04:15:50;;;;;;;26.27;14.60;;;;;;;-146.25;100.00;52597.31;2070809;28;34372;-64
2024/02/15 04:16:52;;;;;;;29.00;14.85;;;;;;;-146.25;100.00;52692.63;2071810;28;37226;-63
2024/02/15 04:17:56;;;;;;;24.92;13.38;;;;;;;-146.25;100.00;52631.78;2080414;28;20085;-65
2024/02/15 04:18:58;;;;;;;22.80;13.60;;;;;;;-146.25;100.00;52639.91;2079628;28;36821;-64
2024/02/15 04:19:59;;;;;;;19.55;12.73;;;;;;;-146.25;100.00;52635.84;2079345;28;33724;-63
2024/02/15 04:21:02;;;;;;;26.40;14.02;;;;;;;-146.25;100.00;52652.06;2079818;28;34580;-64
2024/02/15 04:22:07;;;;;;;23.30;13.23;;;;;;;-146.25;100.00;52641.94;2079586;28;38188;-64
2024/02/15 04:23:09;;;;;;;24.58;13.98;;;;;;;-146.25;100.00;52639.91;2080540;28;20046;-64
2024/02/15 04:24:10;;;;;;;21.10;13.00;;;;;;;-146.25;100.00;52656.13;2079380;28;38119;-64
2024/02/15 04:25:17;;;;;;;25.60;12.77;;;;;;;-146.25;100.00;52615.56;2070877;28;33977;-64
2024/02/15 04:26:19;;;;;;;24.55;14.35;;;;;;;-146.25;100.00;52627.75;2071949;28;34797;-63
2024/02/15 04:27:21;;;;;;;26.85;14.65;;;;;;;-146.25;100.00;52623.69;2079654;28;36707;-64
2024/02/15 04:28:23;;;;;;;29.38;15.20;;;;;;;-146.25;100.00;52613.53;2080555;28;20033;-64
2024/02/15 04:29:25;;;;;;;24.30;13.95;;;;;;;-146.25;100.00;52645.97;2079185;28;37956;-63
2024/02/15 04:30:27;;;;;;;25.48;13.80;;;;;;;-146.25;100.00;52621.66;2079893;28;34986;-63
2024/02/15 04:31:29;;;;;;;26.30;14.27;;;;;;;-146.25;100.00;52619.63;2079691;28;33256;-63
2024/02/15 04:32:33;;;;;;;25.17;15.20;;;;;;;-146.25;100.00;52603.41;2079412;28;35841;-63
2024/02/15 04:33:35;;;;;;;24.45;13.90;;;;;;;-146.25;100.00;52643.97;2079897;28;20046;-64
2024/02/15 04:34:38;;;;;;;27.88;14.30;;;;;;;-146.25;100.00;52615.56;2079782;28;37349;-63
2024/02/15 04:35:40;;;;;;;28.92;14.93;;;;;;;-146.25;100.00;52631.78;2079532;28;20069;-63
2024/02/15 04:36:50;;;;;;;24.75;14.68;;;;;;;-146.25;100.00;52621.66;2080026;28;33892;-63
2024/02/15 04:37:54;;;;;;;28.08;14.38;;;;;;;-146.25;100.00;52666.25;2080309;28;20935;-62
2024/02/15 04:38:56;;;;;;;25.65;15.25;;;;;;;-146.25;100.00;52639.91;2080287;28;20981;-63
2024/02/15 04:40:06;;;;;;;28.95;15.50;;;;;;;-146.25;100.00;52662.22;2079673;28;33694;-63